Time;durP1;ratioP1;P1;durP2;ratioP2;P2;SDS_P1;SDS_P2;PMS_P1;PMS_P2;Temp;Humidity;BMP_temperature;BMP_pressure;BME280_temperature;BME280_humidity;BME280_pressure;Samples;Min_cycle;Max_cycle;Signal;HPM_P1;HPM_P2
2022/08/22 00:01:57;;;;;;;26.20;8.07;;;18.50;98.80;;;;;;4791924;29;20050;-71
2022/08/22 00:04:58;;;;;;;29.08;7.63;;;18.70;97.80;;;;;;4814436;29;20150;-71
2022/08/22 00:07:38;;;;;;;23.15;7.57;;;19.30;99.90;;;;;;4787024;29;20111;-68
2022/08/22 00:10:17;;;;;;;19.48;7.63;;;17.20;99.90;;;;;;4824028;29;20046;-68
2022/08/22 00:13:10;;;;;;;25.17;6.82;;;19.50;98.80;;;;;;4790143;29;20039;-67
2022/08/22 00:15:46;;;;;;;23.35;7.10;;;19.50;99.90;;;;;;4835570;29;20051;-67
2022/08/22 00:18:30;;;;;;;20.52;7.03;;;18.00;99.90;;;;;;4804860;29;20054;-71
2022/08/22 00:21:13;;;;;;;24.05;7.63;;;17.20;99.90;;;;;;4805709;29;20046;-71
2022/08/22 00:23:46;;;;;;;26.15;7.95;;;19.20;99.90;;;;;;4804276;29;20054;-70
2022/08/22 00:26:12;;;;;;;25.85;7.00;;;;;;;;;;4790142;29;20142;-71
2022/08/22 00:28:47;;;;;;;22.13;7.60;;;18.30;98.90;;;;;;4805691;29;20042;-71
2022/08/22 00:31:23;;;;;;;25.45;7.38;;;18.90;98.60;;;;;;4835916;29;20042;-71
2022/08/22 00:34:09;;;;;;;22.02;7.05;;;17.80;99.90;;;;;;4805896;29;20051;-72
2022/08/22 00:36:35;;;;;;;24.98;7.00;;;;;;;;;;4829295;29;20057;-71
2022/08/22 00:39:16;;;;;;;21.77;7.40;;;17.20;99.90;;;;;;4805169;29;20421;-71
2022/08/22 00:41:50;;;;;;;19.95;7.10;;;18.90;99.90;;;;;;4804841;29;20047;-72
2022/08/22 00:44:26;;;;;;;19.13;7.00;;;18.70;99.90;;;;;;4832681;29;20495;-71
2022/08/22 00:47:15;;;;;;;24.08;7.18;;;18.00;98.70;;;;;;4804344;29;20050;-71
2022/08/22 00:49:41;;;;;;;22.65;7.20;;;;;;;;;;4804667;29;20047;-71
2022/08/22 00:52:41;;;;;;;25.45;7.82;;;18.20;98.40;;;;;;4804883;29;20095;-72
2022/08/22 00:55:41;;;;;;;26.77;7.57;;;17.90;98.30;;;;;;4805178;29;20069;-71
2022/08/22 00:58:37;;;;;;;27.58;7.25;;;;;;;;;;4828575;29;20062;-71
2022/08/22 01:01:07;;;;;;;25.85;7.03;;;18.40;99.90;;;;;;4796500;29;20055;-71
2022/08/22 01:03:47;;;;;;;23.08;7.50;;;18.50;99.90;;;;;;4825851;29;20495;-72
2022/08/22 01:06:25;;;;;;;16.27;6.60;;;16.90;99.90;;;;;;4804026;29;20055;-71
2022/08/22 01:08:51;;;;;;;23.15;7.18;;;;;;;;;;4804370;29;20053;-72
2022/08/22 01:11:38;;;;;;;24.23;7.20;;;18.30;99.90;;;;;;4804441;29;20454;-71
2022/08/22 01:14:22;;;;;;;16.90;6.63;;;18.90;99.90;;;;;;4789455;29;20137;-71
2022/08/22 01:17:06;;;;;;;20.63;6.72;;;18.90;99.90;;;;;;4804390;29;20046;-71
2022/08/22 01:20:02;;;;;;;29.92;7.35;;;16.60;99.90;;;;;;4819952;29;20047;-71
2022/08/22 01:22:50;;;;;;;19.52;7.25;;;17.80;99.90;;;;;;4789448;29;20069;-72
2022/08/22 01:25:31;;;;;;;14.90;7.25;;;17.00;99.90;;;;;;4789757;29;20055;-71
2022/08/22 01:28:09;;;;;;;22.30;7.32;;;18.60;99.90;;;;;;4804288;29;20408;-68
2022/08/22 01:30:59;;;;;;;21.27;7.03;;;17.50;99.90;;;;;;4804212;29;20131;-69
2022/08/22 01:34:02;;;;;;;22.00;7.65;;;17.00;99.90;;;;;;4814862;29;20039;-69
2022/08/22 01:36:42;;;;;;;19.58;7.53;;;18.60;99.90;;;;;;4804190;29;20484;-68
2022/08/22 01:39:11;;;;;;;21.13;7.13;;;17.50;99.20;;;;;;4804257;29;20559;-68
2022/08/22 01:41:37;;;;;;;18.98;6.88;;;;;;;;;;4804204;29;20043;-68
2022/08/22 01:44:11;;;;;;;24.85;7.03;;;18.10;99.90;;;;;;4811867;29;20051;-68
2022/08/22 01:47:05;;;;;;;22.23;7.50;;;17.40;99.90;;;;;;4792437;29;20061;-68
2022/08/22 01:49:34;;;;;;;27.80;7.00;;;17.50;99.50;;;;;;4826581;29;20043;-68
2022/08/22 01:52:15;;;;;;;16.70;7.60;;;18.40;99.90;;;;;;4807722;29;20042;-69
2022/08/22 01:54:41;;;;;;;23.60;7.97;;;;;;;;;;4807200;29;20039;-68
2022/08/22 01:57:09;;;;;;;25.20;8.45;;;17.20;99.90;;;;;;4807325;29;20405;-71
2022/08/22 01:59:38;;;;;;;25.35;7.50;;;17.40;99.90;;;;;;4807278;29;20058;-71
2022/08/22 02:02:04;;;;;;;23.83;7.05;;;;;;;;;;4837572;29;20082;-71
2022/08/22 02:04:55;;;;;;;22.55;7.25;;;18.30;99.90;;;;;;4807447;29;20504;-72
2022/08/22 02:07:30;;;;;;;23.00;7.15;;;18.40;99.90;;;;;;4807259;29;20526;-71
2022/08/22 02:10:14;;;;;;;19.10;7.07;;;;;;;;;;4832003;29;20092;-71
2022/08/22 02:12:40;;;;;;;23.42;7.72;;;16.00;99.90;;;;;;4814949;29;20047;-71
2022/08/22 02:15:21;;;;;;;17.83;6.97;;;18.30;99.90;;;;;;4791706;29;20047;-71
2022/08/22 02:18:03;;;;;;;27.63;7.38;;;17.40;99.90;;;;;;4806957;29;20043;-71
2022/08/22 02:20:29;;;;;;;18.33;6.95;;;18.30;99.90;;;;;;4804147;29;20043;-71
2022/08/22 02:23:20;;;;;;;20.50;7.32;;;17.60;99.90;;;;;;4819389;29;20051;-72
2022/08/22 02:26:00;;;;;;;18.50;7.10;;;16.20;99.90;;;;;;4806738;29;20046;-71
2022/08/22 02:28:29;;;;;;;22.80;7.40;;;18.20;99.90;;;;;;4806930;29;20047;-71
2022/08/22 02:31:19;;;;;;;22.80;7.00;;;18.00;99.90;;;;;;4806939;29;20130;-71
2022/08/22 02:33:44;;;;;;;18.90;7.22;;;17.30;99.90;;;;;;4821797;29;20046;-71
2022/08/22 02:36:20;;;;;;;24.13;6.95;;;17.00;99.90;;;;;;4806711;29;20051;-68
2022/08/22 02:39:05;;;;;;;19.20;6.70;;;18.20;99.90;;;;;;4806263;29;20104;-68
2022/08/22 02:41:47;;;;;;;16.65;6.78;;;16.70;99.90;;;;;;4806584;29;20046;-68
2022/08/22 02:44:33;;;;;;;23.95;6.95;;;;;;;;;;4806156;29;20503;-68
2022/08/22 02:46:59;;;;;;;22.42;7.10;;;;;;;;;;4806671;29;20047;-68
2022/08/22 02:49:43;;;;;;;23.60;8.63;;;17.00;99.90;;;;;;4806356;29;20046;-68
2022/08/22 02:52:30;;;;;;;14.40;6.40;;;15.80;99.90;;;;;;4806308;29;20053;-68
2022/08/22 02:55:07;;;;;;;16.85;8.35;;;16.80;99.90;;;;;;4805653;29;20046;-68
2022/08/22 02:57:43;;;;;;;25.40;8.43;;;;;;;;;;4836158;29;20066;-68
2022/08/22 03:00:22;;;;;;;18.08;8.35;;;15.80;99.90;;;;;;4806192;29;20058;-68
2022/08/22 03:03:19;;;;;;;22.27;9.30;;;16.60;99.90;;;;;;4791613;29;20078;-68
2022/08/22 03:05:50;;;;;;;20.20;8.75;;;16.60;99.90;;;;;;4802921;29;20086;-71
2022/08/22 03:08:32;;;;;;;19.20;8.55;;;17.30;99.90;;;;;;4791134;29;20058;-71
2022/08/22 03:10:59;;;;;;;15.73;7.45;;;;;;;;;;4809114;29;20047;-71
2022/08/22 03:13:35;;;;;;;20.88;7.97;;;16.50;99.90;;;;;;4805757;29;20108;-71
2022/08/22 03:16:34;;;;;;;18.15;7.50;;;16.50;99.90;;;;;;4824450;29;20159;-71
2022/08/22 03:19:37;;;;;;;12.32;6.60;;;15.60;99.90;;;;;;4799312;29;20141;-71
2022/08/22 03:22:08;;;;;;;12.40;6.00;;;15.70;99.90;;;;;;4784009;29;20525;-72
2022/08/22 03:24:42;;;;;;;12.93;6.05;;;16.40;99.90;;;;;;4835806;29;20046;-71
2022/08/22 03:27:20;;;;;;;15.15;6.30;;;17.20;99.90;;;;;;4790738;29;20055;-71
2022/08/22 03:29:51;;;;;;;10.20;5.68;;;16.70;99.90;;;;;;4804672;29;20046;-71
2022/08/22 03:32:18;;;;;;;10.52;5.82;;;;;;;;;;4835010;29;20125;-71
2022/08/22 03:34:56;;;;;;;15.93;6.18;;;16.30;99.90;;;;;;4820993;29;20442;-71
2022/08/22 03:37:39;;;;;;;13.05;6.45;;;16.40;99.90;;;;;;4805874;29;21308;-71
2022/08/22 03:40:30;;;;;;;14.25;6.45;;;17.30;99.90;;;;;;4805572;29;20101;-68
2022/08/22 03:43:48;;;;;;;12.07;6.50;;;16.50;99.90;;;;;;4831884;29;20054;-71
2022/08/22 03:46:20;;;;;;;12.50;6.88;;;15.10;99.90;;;;;;4799253;29;20056;-71
2022/08/22 03:49:07;;;;;;;8.40;6.07;;;15.40;99.90;;;;;;4790575;29;20043;-71
2022/08/22 03:51:45;;;;;;;10.85;6.55;;;15.40;99.90;;;;;;4805245;29;20047;-71
2022/08/22 03:54:29;;;;;;;11.27;6.97;;;16.20;99.90;;;;;;4790741;29;20050;-72
2022/08/22 03:57:22;;;;;;;14.77;7.15;;;15.10;99.90;;;;;;4805038;29;20043;-72
2022/08/22 04:00:25;;;;;;;13.55;7.70;;;16.60;99.90;;;;;;4805033;29;20055;-72
2022/08/22 04:03:29;;;;;;;13.57;7.25;;;17.20;99.90;;;;;;4805430;29;20047;-71
2022/08/22 04:06:09;;;;;;;13.68;7.60;;;17.20;99.90;;;;;;4805117;29;20043;-71
2022/08/22 04:09:07;;;;;;;14.30;8.10;;;16.20;99.90;;;;;;4805166;29;20500;-71
2022/08/22 04:12:03;;;;;;;12.10;7.40;;;;;;;;;;4800407;29;20450;-71
2022/08/22 04:14:56;;;;;;;11.15;7.25;;;17.00;99.90;;;;;;4785380;29;20490;-71
2022/08/22 04:17:49;;;;;;;9.68;6.90;;;16.90;99.90;;;;;;4817507;29;20051;-72
2022/08/22 04:20:52;;;;;;;9.55;6.85;;;16.10;99.90;;;;;;4797277;29;20050;-72
2022/08/22 04:23:39;;;;;;;12.05;6.38;;;16.10;99.90;;;;;;4806293;29;20047;-71
2022/08/22 04:26:20;;;;;;;9.85;6.50;;;15.90;99.90;;;;;;4804938;29;20043;-71
2022/08/22 04:28:51;;;;;;;10.20;6.55;;;16.50;99.90;;;;;;4835531;29;20442;-72
2022/08/22 04:31:26;;;;;;;10.23;6.45;;;16.00;99.90;;;;;;4804274;29;20057;-72
2022/08/22 04:34:25;;;;;;;10.80;6.25;;;16.10;99.90;;;;;;4805216;29;20163;-68
2022/08/22 04:37:00;;;;;;;10.45;5.70;;;15.80;99.90;;;;;;4804647;29;20111;-68
2022/08/22 04:39:49;;;;;;;9.32;5.45;;;17.00;99.90;;;;;;4832650;29;20129;-68
2022/08/22 04:42:20;;;;;;;6.53;4.63;;;16.00;99.90;;;;;;4786631;29;20098;-68
2022/08/22 04:44:51;;;;;;;8.73;5.10;;;15.90;99.90;;;;;;4805055;29;20058;-68
2022/08/22 04:47:28;;;;;;;6.97;4.75;;;;;;;;;;4804758;29;20051;-68
2022/08/22 04:50:23;;;;;;;7.75;4.90;;;15.80;99.90;;;;;;4805135;29;20420;-68
2022/08/22 04:53:27;;;;;;;8.43;5.40;;;16.00;99.90;;;;;;4805164;29;20078;-68
2022/08/22 04:56:06;;;;;;;11.73;5.47;;;15.50;99.90;;;;;;4789234;29;20128;-71
2022/08/22 04:58:49;;;;;;;11.13;5.57;;;15.80;99.90;;;;;;4835032;29;20111;-71
2022/08/22 05:01:24;;;;;;;13.18;6.30;;;16.20;99.90;;;;;;4804805;29;20086;-71
2022/08/22 05:03:59;;;;;;;13.93;7.07;;;16.00;99.90;;;;;;4804559;29;20043;-71
2022/08/22 05:06:29;;;;;;;10.30;6.45;;;16.10;99.90;;;;;;4804630;29;20074;-71
2022/08/22 05:09:01;;;;;;;13.52;7.35;;;16.00;99.90;;;;;;4825383;29;20140;-71
2022/08/22 05:11:30;;;;;;;14.10;7.40;;;16.10;99.90;;;;;;4804738;29;20061;-72
2022/08/22 05:14:00;;;;;;;16.13;7.85;;;15.90;99.90;;;;;;4831906;29;20078;-71
2022/08/22 05:16:36;;;;;;;13.10;6.97;;;16.10;99.90;;;;;;4804158;29;20057;-71
2022/08/22 05:19:11;;;;;;;15.27;7.75;;;16.20;99.90;;;;;;4835286;29;20059;-71
2022/08/22 05:21:40;;;;;;;13.15;8.25;;;16.10;99.90;;;;;;4808032;29;20078;-71
2022/08/22 05:24:11;;;;;;;15.90;8.43;;;16.10;99.90;;;;;;4820662;29;20065;-71
2022/08/22 05:26:42;;;;;;;17.98;7.85;;;16.10;99.90;;;;;;4809755;29;20066;-72
2022/08/22 05:29:10;;;;;;;13.52;7.97;;;15.30;99.90;;;;;;4809707;29;20127;-71
2022/08/22 05:31:46;;;;;;;22.67;8.30;;;16.30;99.90;;;;;;4838187;29;20510;-71
2022/08/22 05:34:27;;;;;;;21.20;8.52;;;16.20;99.90;;;;;;4839152;29;20043;-72
2022/08/22 05:37:05;;;;;;;15.60;8.32;;;17.30;99.90;;;;;;4808653;29;20444;-71
2022/08/22 05:39:32;;;;;;;17.08;9.20;;;16.10;99.90;;;;;;4808648;29;20053;-71
2022/08/22 05:42:02;;;;;;;25.23;8.35;;;17.20;99.90;;;;;;4807810;29;20050;-72
2022/08/22 05:44:37;;;;;;;20.77;8.88;;;16.20;99.90;;;;;;4823184;29;20107;-72
2022/08/22 05:47:26;;;;;;;17.45;8.13;;;16.50;99.90;;;;;;4834423;29;20053;-72
2022/08/22 05:50:26;;;;;;;21.92;9.05;;;16.20;99.90;;;;;;4807965;29;20051;-71
2022/08/22 05:53:24;;;;;;;14.15;6.75;;;15.60;99.90;;;;;;4802735;29;20062;-71
2022/08/22 05:56:02;;;;;;;20.55;7.65;;;16.20;99.90;;;;;;4807934;29;20050;-74
2022/08/22 05:58:28;;;;;;;17.23;7.15;;;;;;;;;;4807370;29;20536;-71
2022/08/22 06:01:18;;;;;;;12.43;6.40;;;16.30;99.90;;;;;;4807703;29;20062;-71
2022/08/22 06:04:39;;;;;;;17.17;6.38;;;16.40;99.90;;;;;;4808201;29;20055;-71
2022/08/22 06:07:32;;;;;;;17.85;6.30;;;16.40;99.90;;;;;;4773136;30;20043;-71
2022/08/22 06:09:58;;;;;;;22.75;6.72;;;;;;;;;;4770280;30;20063;-68
2022/08/22 06:12:38;;;;;;;17.55;7.25;;;16.60;99.90;;;;;;4805840;29;20055;-68
2022/08/22 06:15:15;;;;;;;17.45;7.38;;;16.40;99.90;;;;;;4792261;29;20042;-68
2022/08/22 06:17:44;;;;;;;27.42;8.93;;;;;;;;;;4807208;29;20069;-68
2022/08/22 06:20:15;;;;;;;18.42;7.68;;;;;;;;;;4807423;29;20050;-68
2022/08/22 06:22:50;;;;;;;24.10;8.77;;;16.40;99.90;;;;;;4806726;29;20049;-68
2022/08/22 06:25:20;;;;;;;16.48;8.13;;;;;;;;;;4837536;29;20492;-68
2022/08/22 06:27:48;;;;;;;22.17;7.53;;;;;;;;;;4806635;29;20049;-68
2022/08/22 06:30:17;;;;;;;19.30;8.48;;;16.30;99.90;;;;;;4806817;29;20446;-68
2022/08/22 06:32:49;;;;;;;28.27;8.57;;;16.70;99.90;;;;;;4830019;29;20138;-68
2022/08/22 06:38:54;;;;;;;26.70;9.45;;;16.50;99.90;;;;;;4828503;29;20051;-68
2022/08/22 06:41:22;;;;;;;21.17;8.75;;;16.30;99.90;;;;;;4805925;29;20394;-68
2022/08/22 06:43:51;;;;;;;32.40;10.38;;;16.60;99.90;;;;;;4826744;29;20103;-75
2022/08/22 06:46:19;;;;;;;22.98;8.27;;;16.40;99.90;;;;;;4806747;29;20050;-76
2022/08/22 06:48:46;;;;;;;18.98;8.27;;;;;;;;;;4806639;29;20050;-75
2022/08/22 06:51:14;;;;;;;17.98;8.05;;;16.40;99.90;;;;;;4807000;29;20038;-74
2022/08/22 06:53:47;;;;;;;33.80;9.80;;;17.70;99.90;;;;;;4806510;29;20055;-74
2022/08/22 06:56:23;;;;;;;22.77;8.43;;;16.80;99.90;;;;;;4806376;29;20514;-68
2022/08/22 06:58:53;;;;;;;26.30;9.20;;;16.60;99.90;;;;;;4790862;29;20058;-68
2022/08/22 07:02:08;;;;;;;26.15;9.38;;;16.40;99.90;;;;;;4809296;29;20047;-68
2022/08/22 07:04:35;;;;;;;30.73;10.60;;;;;;;;;;4804161;29;20514;-68
2022/08/22 07:07:02;;;;;;;22.60;10.52;;;;;;;;;;4828467;29;20047;-68
2022/08/22 07:09:34;;;;;;;34.45;12.27;;;16.70;99.90;;;;;;4833910;29;20387;-68
2022/08/22 07:12:09;;;;;;;27.70;11.38;;;16.60;99.90;;;;;;4833725;29;20152;-68
2022/08/22 07:14:40;;;;;;;22.60;11.60;;;;;;;;;;4806255;29;20050;-68
2022/08/22 07:17:08;;;;;;;26.65;10.40;;;16.90;99.90;;;;;;4806053;29;20050;-68
2022/08/22 07:19:40;;;;;;;28.40;11.52;;;15.70;99.90;;;;;;4791136;29;20099;-68
2022/08/22 07:22:13;;;;;;;33.10;12.07;;;18.00;99.90;;;;;;4836352;29;20086;-68
2022/08/22 07:24:46;;;;;;;32.20;11.43;;;17.20;99.90;;;;;;4791078;29;20082;-68
2022/08/22 07:27:15;;;;;;;34.22;10.73;;;;;;;;;;4833492;29;20488;-68
2022/08/22 07:30:04;;;;;;;24.83;10.02;;;17.30;99.90;;;;;;4805937;29;20446;-68
2022/08/22 07:32:48;;;;;;;36.05;10.60;;;17.10;99.90;;;;;;4805630;29;20046;-68
2022/08/22 07:35:25;;;;;;;27.90;10.52;;;17.50;99.90;;;;;;4790660;29;20042;-68
2022/08/22 07:37:58;;;;;;;31.45;10.57;;;17.60;99.90;;;;;;4821109;29;20062;-66
2022/08/22 07:40:23;;;;;;;;;;;17.60;99.90;;;;;;4806084;29;20459;-68
2022/08/22 07:43:35;;;;;;;27.63;9.63;;;17.60;99.90;;;;;;4804825;29;19921;-68
2022/08/22 07:46:19;;;;;;;33.93;10.93;;;17.80;99.90;;;;;;4771306;30;20050;-67
2022/08/22 07:49:14;;;;;;;29.17;11.45;;;17.90;99.90;;;;;;4750535;30;20370;-68
2022/08/22 07:51:58;;;;;;;42.03;11.13;;;18.10;99.90;;;;;;4803704;29;20102;-68
2022/08/22 07:54:46;;;;;;;29.27;11.30;;;18.30;99.90;;;;;;4813011;29;20042;-68
2022/08/22 07:57:23;;;;;;;33.58;10.82;;;18.40;99.90;;;;;;4803591;29;20058;-68
2022/08/22 07:59:53;;;;;;;24.80;8.98;;;18.20;99.90;;;;;;4810677;29;20054;-68
2022/08/22 08:02:19;;;;;;;34.00;10.07;;;18.20;99.90;;;;;;4814790;29;20129;-68
2022/08/22 08:04:48;;;;;;;29.98;9.38;;;18.40;99.90;;;;;;4794425;29;20519;-68
2022/08/22 08:07:16;;;;;;;23.70;7.60;;;18.50;99.90;;;;;;4813217;29;20391;-68
2022/08/22 08:10:15;;;;;;;29.83;8.10;;;18.60;99.90;;;;;;4815080;29;20053;-71
2022/08/22 08:12:46;;;;;;;31.92;8.93;;;18.50;99.90;;;;;;4814949;29;20499;-72
2022/08/22 08:15:18;;;;;;;27.38;8.45;;;18.80;99.90;;;;;;4813255;29;20046;-72
2022/08/22 08:17:45;;;;;;;28.77;8.38;;;19.10;99.90;;;;;;4808991;29;20106;-72
2022/08/22 08:20:14;;;;;;;23.67;7.38;;;18.90;99.90;;;;;;4812294;29;20050;-72
2022/08/22 08:22:44;;;;;;;30.92;6.10;;;18.90;99.90;;;;;;4809660;29;20492;-72
2022/08/22 08:25:15;;;;;;;24.00;6.10;;;19.30;99.90;;;;;;4806808;29;20051;-71
2022/08/22 08:30:26;;;;;;;24.08;6.03;;;;;;;;;;4813815;29;20526;-73
2022/08/22 08:32:56;;;;;;;24.48;6.40;;;19.30;99.90;;;;;;4802706;29;20035;-72
2022/08/22 08:35:27;;;;;;;28.10;6.90;;;19.70;99.90;;;;;;4805656;29;20047;-72
2022/08/22 08:38:12;;;;;;;25.38;6.63;;;19.80;99.90;;;;;;4806615;29;20517;-75
2022/08/22 08:40:59;;;;;;;27.35;5.80;;;20.30;99.90;;;;;;4806125;29;20103;-72
2022/08/22 08:44:02;;;;;;;24.98;6.45;;;20.10;99.90;;;;;;4804891;29;20123;-71
2022/08/22 08:47:06;;;;;;;26.80;6.20;;;19.60;99.90;;;;;;4805136;29;20467;-71
2022/08/22 08:49:53;;;;;;;29.17;6.28;;;19.70;99.90;;;;;;4796655;29;20452;-71
2022/08/22 08:52:39;;;;;;;22.52;5.80;;;18.70;99.90;;;;;;4804833;29;20043;-71
2022/08/22 08:55:17;;;;;;;23.77;5.18;;;20.60;99.90;;;;;;4807284;29;20129;-71
2022/08/22 08:57:57;;;;;;;23.10;6.72;;;20.50;99.90;;;;;;4793529;29;20067;-71
2022/08/22 09:00:49;;;;;;;25.60;5.93;;;20.10;99.00;;;;;;4808965;29;20054;-72
2022/08/22 09:03:36;;;;;;;21.58;5.50;;;20.40;98.90;;;;;;4808515;29;20046;-72
2022/08/22 09:06:21;;;;;;;17.65;4.55;;;20.10;98.50;;;;;;4808410;29;20524;-71
2022/08/22 09:09:25;;;;;;;20.40;4.40;;;20.30;98.20;;;;;;4808604;29;20157;-71
2022/08/22 09:12:19;;;;;;;25.83;4.93;;;20.20;99.90;;;;;;4778527;29;20145;-71
2022/08/22 09:15:14;;;;;;;20.77;4.63;;;21.00;99.90;;;;;;4808222;29;20496;-71
2022/08/22 09:18:02;;;;;;;18.33;5.47;;;20.10;99.90;;;;;;4808567;29;20093;-72
2022/08/22 09:20:50;;;;;;;18.05;4.82;;;20.80;99.90;;;;;;4808260;29;20484;-71
2022/08/22 09:23:34;;;;;;;26.55;5.70;;;21.20;99.20;;;;;;4793138;29;20043;-71
2022/08/22 09:26:17;;;;;;;18.48;4.85;;;21.00;99.90;;;;;;4792902;29;20046;-71
2022/08/22 09:29:12;;;;;;;22.33;5.70;;;21.40;99.90;;;;;;4808996;29;20049;-71
2022/08/22 09:31:50;;;;;;;22.80;5.68;;;20.80;97.50;;;;;;4808369;29;20059;-72
2022/08/22 09:34:43;;;;;;;20.73;4.63;;;21.60;99.90;;;;;;4808261;29;20049;-71
2022/08/22 09:37:18;;;;;;;21.40;4.28;;;20.00;99.90;;;;;;4808279;29;20090;-71
2022/08/22 09:40:07;;;;;;;19.48;4.15;;;21.40;99.90;;;;;;4810300;29;20054;-71
2022/08/22 09:42:58;;;;;;;22.95;4.45;;;21.20;99.90;;;;;;4814238;29;20050;-72
2022/08/22 09:45:39;;;;;;;18.08;4.93;;;21.80;99.90;;;;;;4811306;29;20054;-72
2022/08/22 09:48:05;;;;;;;24.20;4.90;;;;;;;;;;4811586;29;20091;-71
2022/08/22 09:50:32;;;;;;;24.65;5.13;;;21.60;99.90;;;;;;4811449;29;20051;-72
2022/08/22 09:53:06;;;;;;;16.52;4.30;;;21.80;99.90;;;;;;4842964;29;20046;-71
2022/08/22 09:55:57;;;;;;;26.17;4.57;;;21.70;99.90;;;;;;4826409;29;20094;-72
2022/08/22 09:58:37;;;;;;;18.02;4.50;;;22.30;99.90;;;;;;4820632;29;20059;-71
2022/08/22 10:01:27;;;;;;;14.05;3.97;;;22.40;99.60;;;;;;4808791;29;20046;-72
2022/08/22 10:04:30;;;;;;;16.10;3.92;;;21.90;99.60;;;;;;4807938;29;20496;-73
2022/08/22 10:07:34;;;;;;;20.05;5.10;;;22.50;99.60;;;;;;4807945;29;20046;-72
2022/08/22 10:10:19;;;;;;;20.88;4.90;;;22.20;93.60;;;;;;4807720;29;20192;-72
2022/08/22 10:13:15;;;;;;;18.70;4.55;;;22.60;99.10;;;;;;4808076;29;20043;-73
2022/08/22 10:15:50;;;;;;;25.48;4.40;;;22.80;98.90;;;;;;4791555;29;20380;-71
2022/08/22 10:18:35;;;;;;;16.27;4.43;;;22.20;92.90;;;;;;4806572;29;20129;-72
2022/08/22 10:21:36;;;;;;;21.83;4.80;;;22.20;98.10;;;;;;4801483;29;20043;-72
2022/08/22 10:24:02;;;;;;;12.02;3.67;;;;;;;;;;4789566;29;20058;-71
2022/08/22 10:26:46;;;;;;;14.27;4.05;;;23.10;97.80;;;;;;4806529;29;20039;-72
2022/08/22 10:29:43;;;;;;;17.02;4.30;;;22.10;94.70;;;;;;4788992;30;20054;-72
2022/08/22 10:32:35;;;;;;;14.57;4.10;;;23.00;97.40;;;;;;4789094;29;20043;-72
2022/08/22 10:35:25;;;;;;;18.77;3.90;;;22.70;92.80;;;;;;4789289;30;20405;-72
2022/08/22 10:38:04;;;;;;;20.50;4.38;;;22.70;91.60;;;;;;4770410;30;20094;-72
2022/08/22 10:41:02;;;;;;;15.65;4.45;;;23.20;97.00;;;;;;4823960;29;20053;-72
2022/08/22 10:43:54;;;;;;;16.88;5.07;;;22.50;95.80;;;;;;4806814;29;20060;-72
2022/08/22 10:46:26;;;;;;;20.75;4.35;;;22.90;96.50;;;;;;4824178;29;20046;-72
2022/08/22 10:49:10;;;;;;;17.08;4.53;;;23.30;95.10;;;;;;4823718;29;20447;-72
2022/08/22 10:51:48;;;;;;;14.90;3.58;;;22.20;93.10;;;;;;4808441;29;20065;-72
2022/08/22 10:54:25;;;;;;;10.57;3.75;;;23.00;91.10;;;;;;4809506;29;20053;-72
2022/08/22 10:57:10;;;;;;;18.85;4.43;;;23.70;95.50;;;;;;4824619;29;20119;-73
2022/08/22 10:59:36;;;;;;;14.88;3.88;;;23.60;95.30;;;;;;4824893;29;20061;-73
2022/08/22 11:02:05;;;;;;;14.90;4.10;;;23.20;89.90;;;;;;4833742;29;20183;-72
2022/08/22 11:04:58;;;;;;;16.23;3.78;;;23.20;94.60;;;;;;4806543;29;20043;-73
2022/08/22 11:07:27;;;;;;;19.35;4.07;;;22.60;94.10;;;;;;4806810;29;20116;-73
2022/08/22 11:10:00;;;;;;;11.05;4.18;;;23.90;94.20;;;;;;4791462;29;20184;-68
2022/08/22 11:12:36;;;;;;;18.25;4.25;;;23.30;94.20;;;;;;4806406;29;20203;-69
2022/08/22 11:15:19;;;;;;;16.85;4.78;;;22.90;86.50;;;;;;4806411;29;20051;-68
2022/08/22 11:18:03;;;;;;;16.38;4.20;;;23.60;94.10;;;;;;4805481;29;20062;-68
2022/08/22 11:20:59;;;;;;;18.20;4.85;;;23.30;93.60;;;;;;4796998;29;20129;-68
2022/08/22 11:23:36;;;;;;;17.70;4.40;;;23.10;89.50;;;;;;4805763;29;20046;-69
2022/08/22 11:26:13;;;;;;;15.88;4.30;;;23.50;93.60;;;;;;4828120;29;20115;-68
2022/08/22 11:29:22;;;;;;;17.75;5.15;;;22.80;86.00;;;;;;4805751;29;20046;-68
2022/08/22 11:32:04;;;;;;;23.77;4.50;;;22.40;87.60;;;;;;4806163;29;20049;-68
2022/08/22 11:34:30;;;;;;;18.33;4.72;;;;;;;;;;4805709;29;20404;-68
2022/08/22 11:37:07;;;;;;;14.05;4.22;;;23.00;94.50;;;;;;4821308;29;20058;-69
2022/08/22 11:40:05;;;;;;;19.88;4.65;;;23.00;93.90;;;;;;4834389;29;20055;-68
2022/08/22 11:43:03;;;;;;;21.90;4.32;;;23.70;94.50;;;;;;4796444;29;20063;-68
2022/08/22 11:45:36;;;;;;;14.73;4.38;;;23.20;94.30;;;;;;4790767;29;20102;-68
2022/08/22 11:48:16;;;;;;;18.88;4.30;;;23.30;94.50;;;;;;4805594;29;20065;-68
2022/08/22 11:50:52;;;;;;;17.58;5.20;;;23.50;94.50;;;;;;4790430;29;20097;-69
2022/08/22 11:53:33;;;;;;;13.82;4.13;;;23.60;94.70;;;;;;4831271;29;20051;-68
2022/08/22 11:56:30;;;;;;;16.02;4.45;;;23.60;94.80;;;;;;4787368;29;20051;-68
2022/08/22 11:59:05;;;;;;;18.23;4.38;;;23.80;94.40;;;;;;4791155;29;20050;-69
2022/08/22 12:01:53;;;;;;;16.35;4.65;;;23.80;93.10;;;;;;4805525;29;20042;-70
2022/08/22 12:04:30;;;;;;;26.20;5.25;;;23.70;94.10;;;;;;4805377;29;20050;-69
2022/08/22 12:07:11;;;;;;;20.73;4.65;;;22.20;93.80;;;;;;4805343;29;20135;-69
2022/08/22 12:10:05;;;;;;;19.35;5.05;;;23.40;94.40;;;;;;4790424;29;20066;-73
2022/08/22 12:12:37;;;;;;;23.75;4.72;;;22.40;93.60;;;;;;4786607;29;20515;-72
2022/08/22 12:15:37;;;;;;;13.82;4.65;;;23.80;94.00;;;;;;4805346;29;20054;-73
2022/08/22 12:18:26;;;;;;;20.70;4.93;;;22.20;87.50;;;;;;4805405;29;20054;-73
2022/08/22 12:21:16;;;;;;;20.55;4.85;;;22.50;93.90;;;;;;4805394;29;20133;-72
2022/08/22 12:24:09;;;;;;;17.90;4.15;;;23.10;94.00;;;;;;4805725;29;20090;-73
2022/08/22 12:27:06;;;;;;;21.65;5.07;;;23.00;87.10;;;;;;4805176;29;20104;-73
2022/08/22 12:29:32;;;;;;;21.45;4.88;;;;;;;;;;4804846;29;20047;-73
2022/08/22 12:32:16;;;;;;;16.63;5.35;;;24.10;90.00;;;;;;4793434;29;20038;-73
2022/08/22 12:35:09;;;;;;;15.95;4.00;;;23.50;93.50;;;;;;4822761;29;20043;-73
2022/08/22 12:37:46;;;;;;;21.88;4.72;;;24.10;93.60;;;;;;4823697;29;20404;-73
2022/08/22 12:40:56;;;;;;;20.17;4.82;;;22.40;93.20;;;;;;4823353;29;20054;-73
2022/08/22 12:43:30;;;;;;;16.80;4.60;;;23.90;93.60;;;;;;4804371;29;20061;-73
2022/08/22 12:46:24;;;;;;;17.45;4.40;;;23.60;91.20;;;;;;4789668;29;20385;-73
2022/08/22 12:49:01;;;;;;;18.48;5.05;;;23.20;85.30;;;;;;4835472;29;20047;-73
2022/08/22 12:51:44;;;;;;;16.13;4.32;;;24.10;93.80;;;;;;4804578;29;20047;-72
2022/08/22 12:54:28;;;;;;;15.02;5.25;;;24.00;93.70;;;;;;4803476;29;20529;-73
2022/08/22 12:57:19;;;;;;;15.10;3.85;;;23.90;93.60;;;;;;4808789;29;20042;-73
2022/08/22 12:59:51;;;;;;;15.25;4.38;;;24.00;93.70;;;;;;4802582;29;20385;-73
2022/08/22 13:02:27;;;;;;;15.50;4.65;;;23.90;93.90;;;;;;4794799;29;20048;-73
2022/08/22 13:04:57;;;;;;;16.25;4.95;;;23.00;93.40;;;;;;4814276;29;20508;-73
2022/08/22 13:07:25;;;;;;;18.75;4.47;;;24.60;93.50;;;;;;4811094;29;20451;-73
2022/08/22 13:09:56;;;;;;;19.67;4.38;;;24.70;92.80;;;;;;4812385;29;20042;-73
2022/08/22 13:12:33;;;;;;;16.23;4.47;;;23.90;91.30;;;;;;4808537;29;20054;-73
2022/08/22 13:15:14;;;;;;;21.48;5.43;;;24.00;92.10;;;;;;4810262;29;20121;-73
2022/08/22 13:17:43;;;;;;;21.17;5.00;;;24.50;84.10;;;;;;4810473;29;20069;-73
2022/08/22 13:20:27;;;;;;;18.90;4.72;;;25.00;92.20;;;;;;4811120;29;20079;-73
2022/08/22 13:22:53;;;;;;;13.40;4.22;;;23.90;84.10;;;;;;4810470;29;20046;-73
2022/08/22 13:25:49;;;;;;;19.08;5.60;;;24.00;92.10;;;;;;4794106;29;20077;-73
2022/08/22 13:28:15;;;;;;;19.85;4.85;;;24.70;91.80;;;;;;4823544;29;20154;-73
2022/08/22 13:30:42;;;;;;;19.73;5.22;;;25.50;86.10;;;;;;4801219;29;20046;-73
2022/08/22 13:33:21;;;;;;;19.77;5.45;;;25.70;91.60;;;;;;4795948;29;20103;-73
2022/08/22 13:35:51;;;;;;;22.48;5.57;;;25.80;91.50;;;;;;4807328;29;20039;-73
2022/08/22 13:38:25;;;;;;;18.45;4.65;;;24.80;90.80;;;;;;4811788;29;20046;-73
2022/08/22 13:40:52;;;;;;;24.67;5.18;;;25.70;91.30;;;;;;4794521;29;20050;-73
2022/08/22 13:43:32;;;;;;;21.00;4.88;;;24.30;90.80;;;;;;4811737;29;20058;-73
2022/08/22 13:46:02;;;;;;;18.05;5.10;;;25.40;91.40;;;;;;4812740;29;20038;-73
2022/08/22 13:48:48;;;;;;;22.02;5.15;;;24.50;82.50;;;;;;4817840;29;20114;-74
2022/08/22 13:51:39;;;;;;;15.50;5.00;;;23.80;91.40;;;;;;4817405;29;20125;-73
2022/08/22 13:54:11;;;;;;;18.65;6.10;;;24.90;91.90;;;;;;4813759;29;20042;-73
2022/08/22 13:56:51;;;;;;;18.10;4.57;;;23.60;91.80;;;;;;4812956;29;20043;-73
2022/08/22 13:59:48;;;;;;;18.58;5.18;;;23.70;87.40;;;;;;4804036;29;20137;-74
2022/08/22 14:02:49;;;;;;;23.77;5.07;;;24.70;80.60;;;;;;4806266;29;20046;-74
2022/08/22 14:05:37;;;;;;;16.83;4.60;;;24.50;91.20;;;;;;4772511;29;20050;-74